BAW1936 OBBI-OMSJ
Flight info
| Callsign | BAW1936 |
|---|---|
| Flight time | 2h 51m |
| Altitude | 3000 |
| Route | DIR |
| Aircraft | HP42/L-FV/L |
Departure
| Time | 2026-04-22 23:21 |
|---|---|
| Airport | Bahrain International Airport (OBBI) |
Arrival
| Time | 2026-04-23 02:12 |
|---|---|
| Airport | Sharjah International Airport (OMSJ) |
| Time | Latitude | Longitude | Altitude | Speed | Heading |
|---|---|---|---|---|---|
| 2026-04-22 23:09 | 26.27417 | 50.61467 | 15 ft | 0 kts | 325° |
| 2026-04-22 23:09 | 26.27418 | 50.61467 | 15 ft | 0 kts | 325° |
| 2026-04-22 23:11 | 26.27419 | 50.61466 | 15 ft | 1 kts | 325° |
| 2026-04-22 23:11 | 26.27472 | 50.61456 | 15 ft | 13 kts | 356° |
| 2026-04-22 23:11 | 26.27560 | 50.61485 | 15 ft | 14 kts | 49° |
| 2026-04-22 23:12 | 26.27625 | 50.61565 | 15 ft | 14 kts | 48° |
| 2026-04-22 23:12 | 26.27689 | 50.61648 | 15 ft | 14 kts | 49° |
| 2026-04-22 23:12 | 26.27762 | 50.61731 | 15 ft | 15 kts | 42° |
| 2026-04-22 23:12 | 26.27761 | 50.61821 | 15 ft | 15 kts | 127° |
| 2026-04-22 23:13 | 26.27727 | 50.61873 | 15 ft | 16 kts | 123° |
| 2026-04-22 23:13 | 26.27705 | 50.61912 | 15 ft | 19 kts | 121° |
| 2026-04-22 23:13 | 26.27627 | 50.62058 | 15 ft | 23 kts | 121° |
| 2026-04-22 23:13 | 26.27544 | 50.62212 | 15 ft | 23 kts | 121° |
| 2026-04-22 23:14 | 26.27464 | 50.62360 | 15 ft | 22 kts | 124° |
| 2026-04-22 23:14 | 26.27378 | 50.62499 | 15 ft | 22 kts | 123° |
| 2026-04-22 23:14 | 26.27297 | 50.62638 | 15 ft | 21 kts | 122° |
| 2026-04-22 23:14 | 26.27223 | 50.62777 | 15 ft | 21 kts | 120° |
| 2026-04-22 23:15 | 26.27147 | 50.62917 | 15 ft | 23 kts | 124° |
| 2026-04-22 23:15 | 26.27049 | 50.63079 | 15 ft | 28 kts | 123° |
| 2026-04-22 23:15 | 26.26929 | 50.63283 | 15 ft | 34 kts | 123° |
| 2026-04-22 23:15 | 26.26799 | 50.63512 | 15 ft | 36 kts | 122° |
| 2026-04-22 23:16 | 26.26675 | 50.63737 | 15 ft | 33 kts | 122° |
| 2026-04-22 23:16 | 26.26568 | 50.63910 | 15 ft | 15 kts | 117° |
| 2026-04-22 23:16 | 26.26515 | 50.64009 | 15 ft | 15 kts | 122° |
| 2026-04-22 23:16 | 26.26457 | 50.64115 | 15 ft | 17 kts | 121° |
| 2026-04-22 23:17 | 26.26391 | 50.64227 | 15 ft | 18 kts | 123° |
| 2026-04-22 23:17 | 26.26335 | 50.64335 | 15 ft | 7 kts | 102° |
| 2026-04-22 23:17 | 26.26337 | 50.64357 | 15 ft | 1 kts | 65° |
| 2026-04-22 23:17 | 26.26351 | 50.64379 | 15 ft | 7 kts | 45° |
| 2026-04-22 23:18 | 26.26376 | 50.64401 | 15 ft | 0 kts | 32° |
| 2026-04-22 23:18 | 26.26377 | 50.64402 | 15 ft | 2 kts | 32° |
| 2026-04-22 23:18 | 26.26429 | 50.64427 | 15 ft | 11 kts | 1° |
| 2026-04-22 23:18 | 26.26486 | 50.64387 | 15 ft | 4 kts | 303° |
| 2026-04-22 23:19 | 26.26488 | 50.64383 | 15 ft | 1 kts | 303° |
| 2026-04-22 23:19 | 26.26552 | 50.64271 | 15 ft | 36 kts | 302° |
| 2026-04-22 23:19 | 26.26757 | 50.63926 | 17 ft | 69 kts | 303° |
| 2026-04-22 23:19 | 26.27048 | 50.63428 | 99 ft | 81 kts | 301° |
| 2026-04-22 23:20 | 26.27360 | 50.62882 | 204 ft | 86 kts | 301° |
| 2026-04-22 23:20 | 26.27680 | 50.62323 | 348 ft | 83 kts | 301° |
| 2026-04-22 23:20 | 26.27984 | 50.61784 | 494 ft | 81 kts | 301° |
| 2026-04-22 23:20 | 26.28270 | 50.61226 | 593 ft | 84 kts | 297° |
| 2026-04-22 23:21 | 26.28654 | 50.60729 | 684 ft | 87 kts | 313° |
| 2026-04-22 23:21 | 26.29249 | 50.60566 | 720 ft | 93 kts | 349° |
| 2026-04-22 23:21 | 26.29850 | 50.60829 | 812 ft | 91 kts | 20° |
| 2026-04-22 23:21 | 26.30382 | 50.61207 | 945 ft | 90 kts | 29° |
| 2026-04-22 23:22 | 26.30704 | 50.61807 | 1025 ft | 93 kts | 62° |
| 2026-04-22 23:22 | 26.30600 | 50.62522 | 1028 ft | 96 kts | 104° |
| 2026-04-22 23:22 | 26.30262 | 50.63170 | 1106 ft | 98 kts | 120° |
| 2026-04-22 23:22 | 26.29929 | 50.63838 | 1202 ft | 99 kts | 119° |
| 2026-04-22 23:23 | 26.29603 | 50.64505 | 1307 ft | 98 kts | 118° |
| 2026-04-22 23:23 | 26.29254 | 50.65157 | 1397 ft | 98 kts | 122° |
| 2026-04-22 23:23 | 26.28896 | 50.65806 | 1493 ft | 99 kts | 122° |
| 2026-04-22 23:23 | 26.28522 | 50.66459 | 1564 ft | 102 kts | 123° |
| 2026-04-22 23:24 | 26.28134 | 50.67130 | 1655 ft | 102 kts | 121° |
| 2026-04-22 23:24 | 26.27762 | 50.67783 | 1785 ft | 98 kts | 117° |
| 2026-04-22 23:24 | 26.27396 | 50.68416 | 1888 ft | 97 kts | 117° |
| 2026-04-22 23:24 | 26.27022 | 50.69051 | 1970 ft | 99 kts | 117° |
| 2026-04-22 23:25 | 26.26650 | 50.69693 | 2055 ft | 98 kts | 115° |
| 2026-04-22 23:25 | 26.26308 | 50.70345 | 2140 ft | 97 kts | 113° |
| 2026-04-22 23:25 | 26.26016 | 50.71017 | 2199 ft | 95 kts | 106° |
| 2026-04-22 23:25 | 26.25858 | 50.71726 | 2224 ft | 94 kts | 95° |
| 2026-04-22 23:26 | 26.25738 | 50.72445 | 2207 ft | 96 kts | 92° |
| 2026-04-22 23:26 | 26.25606 | 50.73180 | 2189 ft | 98 kts | 94° |
| 2026-04-22 23:26 | 26.25355 | 50.73905 | 2147 ft | 101 kts | 105° |
| 2026-04-22 23:26 | 26.25090 | 50.74623 | 2137 ft | 99 kts | 105° |
| 2026-04-22 23:27 | 26.24824 | 50.75331 | 2110 ft | 100 kts | 105° |
| 2026-04-22 23:27 | 26.24608 | 50.76064 | 2085 ft | 99 kts | 100° |
| 2026-04-22 23:27 | 26.24415 | 50.76796 | 2086 ft | 98 kts | 99° |
| 2026-04-22 23:27 | 26.24226 | 50.77526 | 2081 ft | 98 kts | 99° |
| 2026-04-22 23:28 | 26.24037 | 50.78260 | 2075 ft | 99 kts | 99° |
| 2026-04-22 23:28 | 26.23844 | 50.78992 | 2071 ft | 98 kts | 99° |
| 2026-04-22 23:28 | 26.23663 | 50.79727 | 2066 ft | 98 kts | 98° |
| 2026-04-22 23:28 | 26.23494 | 50.80462 | 2059 ft | 98 kts | 98° |
| 2026-04-22 23:29 | 26.23340 | 50.81198 | 2047 ft | 98 kts | 96° |
| 2026-04-22 23:29 | 26.23187 | 50.81934 | 2041 ft | 97 kts | 95° |
| 2026-04-22 23:29 | 26.23024 | 50.82662 | 2037 ft | 97 kts | 96° |
| 2026-04-22 23:29 | 26.22854 | 50.83389 | 2020 ft | 97 kts | 96° |
| 2026-04-22 23:30 | 26.22679 | 50.84119 | 2005 ft | 98 kts | 96° |
| 2026-04-22 23:30 | 26.22500 | 50.84848 | 1990 ft | 98 kts | 97° |
| 2026-04-22 23:30 | 26.22317 | 50.85577 | 1974 ft | 98 kts | 97° |
| 2026-04-22 23:30 | 26.22130 | 50.86303 | 1957 ft | 98 kts | 97° |
| 2026-04-22 23:31 | 26.21942 | 50.87021 | 1940 ft | 98 kts | 98° |
| 2026-04-22 23:31 | 26.21750 | 50.87749 | 1923 ft | 98 kts | 98° |
| 2026-04-22 23:31 | 26.21558 | 50.88477 | 1907 ft | 98 kts | 98° |
| 2026-04-22 23:31 | 26.21369 | 50.89204 | 1893 ft | 98 kts | 98° |
| 2026-04-22 23:32 | 26.21182 | 50.89933 | 1877 ft | 98 kts | 98° |
| 2026-04-22 23:32 | 26.20993 | 50.90662 | 1863 ft | 98 kts | 98° |
| 2026-04-22 23:32 | 26.20805 | 50.91395 | 1860 ft | 98 kts | 98° |
| 2026-04-22 23:32 | 26.20607 | 50.92123 | 1874 ft | 98 kts | 99° |
| 2026-04-22 23:33 | 26.20399 | 50.92846 | 1889 ft | 98 kts | 100° |
| 2026-04-22 23:33 | 26.20192 | 50.93572 | 1906 ft | 98 kts | 99° |
| 2026-04-22 23:33 | 26.19998 | 50.94300 | 1926 ft | 98 kts | 98° |
| 2026-04-22 23:33 | 26.19808 | 50.95028 | 1943 ft | 98 kts | 98° |
| 2026-04-22 23:34 | 26.19622 | 50.95759 | 1955 ft | 98 kts | 98° |
| 2026-04-22 23:34 | 26.19448 | 50.96489 | 1967 ft | 97 kts | 97° |
| 2026-04-22 23:34 | 26.19280 | 50.97218 | 1976 ft | 97 kts | 96° |
| 2026-04-22 23:34 | 26.19116 | 50.97950 | 1977 ft | 98 kts | 96° |
| 2026-04-22 23:35 | 26.18947 | 50.98683 | 1978 ft | 98 kts | 96° |
| 2026-04-22 23:35 | 26.18771 | 50.99416 | 1984 ft | 98 kts | 97° |
| 2026-04-22 23:35 | 26.18579 | 51.00146 | 1987 ft | 98 kts | 99° |
| 2026-04-22 23:35 | 26.18371 | 51.00872 | 1990 ft | 99 kts | 100° |
| 2026-04-22 23:36 | 26.18153 | 51.01596 | 1994 ft | 99 kts | 101° |
| 2026-04-22 23:36 | 26.17941 | 51.02323 | 1998 ft | 98 kts | 99° |
| 2026-04-22 23:36 | 26.17806 | 51.03064 | 2011 ft | 97 kts | 94° |
| 2026-04-22 23:36 | 26.17669 | 51.03798 | 2035 ft | 97 kts | 94° |
| 2026-04-22 23:37 | 26.17531 | 51.04534 | 2045 ft | 97 kts | 94° |
| 2026-04-22 23:37 | 26.17449 | 51.05024 | 2053 ft | 97 kts | 93° |
| 2026-04-22 23:37 | 26.17334 | 51.05762 | 2070 ft | 96 kts | 92° |
| 2026-04-22 23:37 | 26.17234 | 51.06501 | 2074 ft | 96 kts | 91° |
| 2026-04-22 23:38 | 26.17136 | 51.07240 | 2071 ft | 97 kts | 91° |
| 2026-04-22 23:38 | 26.17038 | 51.07980 | 2068 ft | 97 kts | 91° |
| 2026-04-22 23:38 | 26.16948 | 51.08723 | 2073 ft | 96 kts | 90° |
| 2026-04-22 23:38 | 26.16864 | 51.09462 | 2086 ft | 96 kts | 90° |
| 2026-04-22 23:39 | 26.16790 | 51.10200 | 2101 ft | 96 kts | 89° |
| 2026-04-22 23:39 | 26.16721 | 51.10940 | 2113 ft | 96 kts | 89° |
| 2026-04-22 23:39 | 26.16652 | 51.11682 | 2128 ft | 96 kts | 89° |
| 2026-04-22 23:39 | 26.16581 | 51.12424 | 2143 ft | 96 kts | 89° |
| 2026-04-22 23:40 | 26.16507 | 51.13165 | 2153 ft | 96 kts | 89° |
| 2026-04-22 23:40 | 26.16428 | 51.13905 | 2160 ft | 96 kts | 89° |
| 2026-04-22 23:40 | 26.16344 | 51.14645 | 2165 ft | 96 kts | 90° |
| 2026-04-22 23:40 | 26.16274 | 51.15385 | 2170 ft | 96 kts | 88° |
| 2026-04-22 23:41 | 26.16215 | 51.16124 | 2178 ft | 96 kts | 88° |
| 2026-04-22 23:41 | 26.16161 | 51.16863 | 2187 ft | 96 kts | 87° |
| 2026-04-22 23:41 | 26.16117 | 51.17593 | 2198 ft | 96 kts | 86° |
| 2026-04-22 23:41 | 26.16075 | 51.18332 | 2212 ft | 96 kts | 86° |
| 2026-04-22 23:42 | 26.16031 | 51.19080 | 2225 ft | 96 kts | 86° |
| 2026-04-22 23:42 | 26.15985 | 51.19811 | 2238 ft | 96 kts | 86° |
| 2026-04-22 23:42 | 26.15936 | 51.20551 | 2253 ft | 96 kts | 87° |
| 2026-04-22 23:42 | 26.15881 | 51.21292 | 2271 ft | 96 kts | 88° |
| 2026-04-22 23:43 | 26.15817 | 51.22034 | 2284 ft | 97 kts | 88° |
| 2026-04-22 23:43 | 26.15744 | 51.22779 | 2292 ft | 97 kts | 89° |
| 2026-04-22 23:43 | 26.15666 | 51.23522 | 2293 ft | 97 kts | 89° |
| 2026-04-22 23:43 | 26.15583 | 51.24265 | 2294 ft | 97 kts | 90° |
| 2026-04-22 23:44 | 26.15493 | 51.25008 | 2292 ft | 97 kts | 90° |
| 2026-04-22 23:44 | 26.15398 | 51.25751 | 2293 ft | 97 kts | 91° |
| 2026-04-22 23:44 | 26.15294 | 51.26496 | 2296 ft | 98 kts | 91° |
| 2026-04-22 23:44 | 26.15179 | 51.27239 | 2299 ft | 97 kts | 92° |
| 2026-04-22 23:45 | 26.15059 | 51.27981 | 2303 ft | 97 kts | 93° |
| 2026-04-22 23:45 | 26.14938 | 51.28723 | 2304 ft | 98 kts | 93° |
| 2026-04-22 23:45 | 26.14813 | 51.29466 | 2319 ft | 98 kts | 94° |
| 2026-04-22 23:45 | 26.14679 | 51.30207 | 2324 ft | 98 kts | 94° |
| 2026-04-22 23:46 | 26.14539 | 51.30947 | 2328 ft | 98 kts | 95° |
| 2026-04-22 23:46 | 26.14394 | 51.31688 | 2332 ft | 98 kts | 95° |
| 2026-04-22 23:46 | 26.14247 | 51.32428 | 2331 ft | 98 kts | 95° |
| 2026-04-22 23:46 | 26.14101 | 51.33167 | 2334 ft | 98 kts | 95° |
| 2026-04-22 23:47 | 26.13952 | 51.33907 | 2337 ft | 98 kts | 95° |
| 2026-04-22 23:47 | 26.13804 | 51.34647 | 2339 ft | 98 kts | 95° |
| 2026-04-22 23:47 | 26.13710 | 51.35392 | 2332 ft | 97 kts | 91° |
| 2026-04-22 23:47 | 26.13633 | 51.36136 | 2323 ft | 97 kts | 90° |
| 2026-04-22 23:48 | 26.13566 | 51.36881 | 2312 ft | 97 kts | 89° |
| 2026-04-22 23:48 | 26.13504 | 51.37626 | 2298 ft | 97 kts | 89° |
| 2026-04-22 23:48 | 26.13443 | 51.38373 | 2295 ft | 97 kts | 89° |
| 2026-04-22 23:48 | 26.13384 | 51.39118 | 2290 ft | 96 kts | 88° |
| 2026-04-22 23:49 | 26.13345 | 51.39860 | 2270 ft | 96 kts | 86° |
| 2026-04-22 23:49 | 26.13313 | 51.40605 | 2244 ft | 96 kts | 86° |
| 2026-04-22 23:49 | 26.13282 | 51.41349 | 2215 ft | 96 kts | 86° |
| 2026-04-22 23:49 | 26.13249 | 51.42093 | 2186 ft | 96 kts | 86° |
| 2026-04-22 23:50 | 26.13213 | 51.42837 | 2160 ft | 96 kts | 86° |
| 2026-04-22 23:50 | 26.13173 | 51.43581 | 2132 ft | 97 kts | 86° |
| 2026-04-22 23:50 | 26.13129 | 51.44328 | 2111 ft | 97 kts | 87° |
| 2026-04-22 23:50 | 26.13082 | 51.45064 | 2092 ft | 97 kts | 87° |
| 2026-04-22 23:51 | 26.13031 | 51.45812 | 2072 ft | 97 kts | 88° |
| 2026-04-22 23:51 | 26.12976 | 51.46561 | 2058 ft | 97 kts | 88° |
| 2026-04-22 23:51 | 26.12920 | 51.47319 | 2037 ft | 97 kts | 88° |
| 2026-04-22 23:51 | 26.12870 | 51.48057 | 2020 ft | 97 kts | 88° |
| 2026-04-22 23:52 | 26.12821 | 51.48809 | 2001 ft | 97 kts | 88° |
| 2026-04-22 23:52 | 26.12771 | 51.49558 | 1982 ft | 97 kts | 88° |
| 2026-04-22 23:52 | 26.12720 | 51.50307 | 1964 ft | 97 kts | 88° |
| 2026-04-22 23:52 | 26.12667 | 51.51056 | 1946 ft | 97 kts | 88° |
| 2026-04-22 23:53 | 26.12614 | 51.51806 | 1930 ft | 97 kts | 88° |
| 2026-04-22 23:53 | 26.12560 | 51.52555 | 1918 ft | 97 kts | 88° |
| 2026-04-22 23:53 | 26.12504 | 51.53305 | 1908 ft | 97 kts | 89° |
| 2026-04-22 23:53 | 26.12448 | 51.54054 | 1899 ft | 97 kts | 89° |
| 2026-04-22 23:54 | 26.12389 | 51.54805 | 1888 ft | 97 kts | 89° |
| 2026-04-22 23:54 | 26.12328 | 51.55554 | 1883 ft | 97 kts | 89° |
| 2026-04-22 23:54 | 26.12263 | 51.56305 | 1874 ft | 97 kts | 89° |
| 2026-04-22 23:54 | 26.12194 | 51.57056 | 1873 ft | 97 kts | 90° |
| 2026-04-22 23:55 | 26.12122 | 51.57804 | 1873 ft | 97 kts | 90° |
| 2026-04-22 23:55 | 26.12045 | 51.58556 | 1872 ft | 98 kts | 90° |
| 2026-04-22 23:55 | 26.11966 | 51.59307 | 1873 ft | 98 kts | 91° |
| 2026-04-22 23:55 | 26.11884 | 51.60058 | 1877 ft | 98 kts | 91° |
| 2026-04-22 23:56 | 26.11812 | 51.60800 | 1882 ft | 98 kts | 90° |
| 2026-04-22 23:56 | 26.11745 | 51.61553 | 1891 ft | 98 kts | 90° |
| 2026-04-22 23:56 | 26.11677 | 51.62305 | 1902 ft | 98 kts | 90° |
| 2026-04-22 23:56 | 26.11610 | 51.63058 | 1896 ft | 98 kts | 90° |
| 2026-04-22 23:57 | 26.11558 | 51.63808 | 1933 ft | 96 kts | 88° |
| 2026-04-22 23:57 | 26.11516 | 51.64555 | 1985 ft | 98 kts | 88° |
| 2026-04-22 23:57 | 26.11447 | 51.65306 | 2018 ft | 98 kts | 90° |
| 2026-04-22 23:57 | 26.11362 | 51.66060 | 2031 ft | 99 kts | 91° |
| 2026-04-22 23:58 | 26.11267 | 51.66808 | 2046 ft | 97 kts | 92° |
| 2026-04-22 23:58 | 26.11173 | 51.67549 | 2068 ft | 97 kts | 92° |
| 2026-04-22 23:58 | 26.11080 | 51.68300 | 2094 ft | 98 kts | 92° |
| 2026-04-22 23:58 | 26.10995 | 51.69048 | 2105 ft | 97 kts | 91° |
| 2026-04-22 23:59 | 26.10914 | 51.69792 | 2111 ft | 97 kts | 91° |
| 2026-04-22 23:59 | 26.10819 | 51.70543 | 2101 ft | 98 kts | 92° |
| 2026-04-22 23:59 | 26.10723 | 51.71291 | 2129 ft | 98 kts | 92° |
| 2026-04-22 23:59 | 26.10610 | 51.72040 | 2146 ft | 98 kts | 94° |
| 2026-04-23 00:00 | 26.10384 | 51.73534 | 2177 ft | 97 kts | 92° |
| 2026-04-23 00:00 | 26.10296 | 51.74286 | 2183 ft | 98 kts | 91° |
| 2026-04-23 00:00 | 26.10209 | 51.75033 | 2224 ft | 96 kts | 91° |
| 2026-04-23 00:01 | 26.10135 | 51.75774 | 2246 ft | 97 kts | 90° |
| 2026-04-23 00:01 | 26.10071 | 51.76524 | 2280 ft | 98 kts | 89° |
| 2026-04-23 00:01 | 26.10010 | 51.77269 | 2311 ft | 96 kts | 89° |
| 2026-04-23 00:01 | 26.09946 | 51.78015 | 2313 ft | 98 kts | 89° |
| 2026-04-23 00:02 | 26.09870 | 51.78773 | 2316 ft | 98 kts | 90° |
| 2026-04-23 00:02 | 26.09809 | 51.79519 | 2365 ft | 96 kts | 89° |
| 2026-04-23 00:02 | 26.09753 | 51.80264 | 2357 ft | 97 kts | 89° |
| 2026-04-23 00:02 | 26.09697 | 51.81012 | 2382 ft | 96 kts | 88° |
| 2026-04-23 00:03 | 26.09635 | 51.81761 | 2413 ft | 97 kts | 89° |
| 2026-04-23 00:03 | 26.09566 | 51.82505 | 2426 ft | 96 kts | 89° |
| 2026-04-23 00:03 | 26.09508 | 51.83253 | 2421 ft | 97 kts | 89° |
| 2026-04-23 00:03 | 26.09460 | 51.84001 | 2440 ft | 97 kts | 88° |
| 2026-04-23 00:04 | 26.09412 | 51.84746 | 2471 ft | 96 kts | 88° |
| 2026-04-23 00:04 | 26.09376 | 51.85487 | 2484 ft | 97 kts | 86° |
| 2026-04-23 00:04 | 26.09339 | 51.86233 | 2486 ft | 98 kts | 87° |
| 2026-04-23 00:04 | 26.09296 | 51.86979 | 2506 ft | 96 kts | 88° |
| 2026-04-23 00:05 | 26.09256 | 51.87721 | 2507 ft | 97 kts | 87° |
| 2026-04-23 00:05 | 26.09202 | 51.88467 | 2525 ft | 98 kts | 89° |
| 2026-04-23 00:05 | 26.09059 | 51.89211 | 2511 ft | 99 kts | 96° |
| 2026-04-23 00:05 | 26.08909 | 51.89953 | 2518 ft | 98 kts | 97° |
| 2026-04-23 00:06 | 26.08743 | 51.90687 | 2493 ft | 98 kts | 98° |
| 2026-04-23 00:06 | 26.08577 | 51.91429 | 2424 ft | 100 kts | 98° |
| 2026-04-23 00:06 | 26.08404 | 51.92176 | 2390 ft | 98 kts | 98° |
| 2026-04-23 00:06 | 26.08241 | 51.92911 | 2396 ft | 99 kts | 98° |
| 2026-04-23 00:07 | 26.08052 | 51.93651 | 2377 ft | 99 kts | 101° |
| 2026-04-23 00:07 | 26.07846 | 51.94381 | 2392 ft | 99 kts | 102° |
| 2026-04-23 00:07 | 26.07600 | 51.95105 | 2396 ft | 101 kts | 105° |
| 2026-04-23 00:07 | 26.07343 | 51.95829 | 2382 ft | 100 kts | 104° |
| 2026-04-23 00:08 | 26.07196 | 51.96573 | 2373 ft | 99 kts | 95° |
| 2026-04-23 00:08 | 26.07102 | 51.97322 | 2403 ft | 97 kts | 91° |
| 2026-04-23 00:08 | 26.07046 | 51.98063 | 2395 ft | 96 kts | 88° |
| 2026-04-23 00:08 | 26.07001 | 51.98815 | 2347 ft | 98 kts | 88° |
| 2026-04-23 00:09 | 26.06946 | 51.99560 | 2342 ft | 97 kts | 89° |
| 2026-04-23 00:09 | 26.06896 | 52.00305 | 2329 ft | 97 kts | 88° |
| 2026-04-23 00:09 | 26.06847 | 52.01053 | 2284 ft | 97 kts | 88° |
| 2026-04-23 00:09 | 26.06795 | 52.01804 | 2248 ft | 97 kts | 88° |
| 2026-04-23 00:10 | 26.06741 | 52.02554 | 2217 ft | 97 kts | 88° |
| 2026-04-23 00:10 | 26.06703 | 52.03304 | 2182 ft | 97 kts | 86° |
| 2026-04-23 00:10 | 26.06684 | 52.04052 | 2152 ft | 97 kts | 85° |
| 2026-04-23 00:10 | 26.06640 | 52.04802 | 2116 ft | 97 kts | 88° |
| 2026-04-23 00:11 | 26.06596 | 52.05544 | 2081 ft | 97 kts | 88° |
| 2026-04-23 00:11 | 26.06551 | 52.06296 | 2048 ft | 97 kts | 88° |
| 2026-04-23 00:11 | 26.06504 | 52.07046 | 2013 ft | 97 kts | 88° |
| 2026-04-23 00:11 | 26.06444 | 52.07798 | 1978 ft | 98 kts | 89° |
| 2026-04-23 00:12 | 26.06383 | 52.08551 | 1946 ft | 98 kts | 89° |
| 2026-04-23 00:12 | 26.06314 | 52.09307 | 1910 ft | 100 kts | 86° |
| 2026-04-23 00:12 | 26.06216 | 52.10082 | 1861 ft | 101 kts | 86° |
| 2026-04-23 00:12 | 26.06090 | 52.10856 | 1842 ft | 102 kts | 90° |
| 2026-04-23 00:13 | 26.05956 | 52.11626 | 1819 ft | 101 kts | 89° |
| 2026-04-23 00:13 | 26.05828 | 52.12397 | 1802 ft | 101 kts | 89° |
| 2026-04-23 00:13 | 26.05700 | 52.13166 | 1786 ft | 101 kts | 89° |
| 2026-04-23 00:13 | 26.05570 | 52.13936 | 1772 ft | 101 kts | 89° |
| 2026-04-23 00:14 | 26.05436 | 52.14705 | 1755 ft | 101 kts | 90° |
| 2026-04-23 00:14 | 26.05299 | 52.15476 | 1737 ft | 101 kts | 90° |
| 2026-04-23 00:14 | 26.05158 | 52.16245 | 1716 ft | 102 kts | 90° |
| 2026-04-23 00:14 | 26.05016 | 52.17015 | 1704 ft | 102 kts | 90° |
| 2026-04-23 00:15 | 26.04877 | 52.17784 | 1699 ft | 101 kts | 90° |
| 2026-04-23 00:15 | 26.04744 | 52.18551 | 1698 ft | 101 kts | 90° |
| 2026-04-23 00:15 | 26.04613 | 52.19322 | 1698 ft | 102 kts | 89° |
| 2026-04-23 00:15 | 26.04487 | 52.20093 | 1719 ft | 101 kts | 89° |
| 2026-04-23 00:16 | 26.04361 | 52.20859 | 1736 ft | 101 kts | 89° |
| 2026-04-23 00:16 | 26.04239 | 52.21628 | 1752 ft | 101 kts | 89° |
| 2026-04-23 00:16 | 26.04122 | 52.22396 | 1773 ft | 100 kts | 89° |
| 2026-04-23 00:16 | 26.04001 | 52.23163 | 1787 ft | 101 kts | 89° |
| 2026-04-23 00:17 | 26.03881 | 52.23931 | 1793 ft | 101 kts | 89° |
| 2026-04-23 00:17 | 26.03771 | 52.24699 | 1804 ft | 100 kts | 88° |
| 2026-04-23 00:17 | 26.03674 | 52.25465 | 1809 ft | 100 kts | 87° |
| 2026-04-23 00:17 | 26.03581 | 52.26232 | 1815 ft | 100 kts | 86° |
| 2026-04-23 00:18 | 26.03487 | 52.26998 | 1819 ft | 100 kts | 87° |
| 2026-04-23 00:18 | 26.03390 | 52.27767 | 1828 ft | 101 kts | 87° |
| 2026-04-23 00:18 | 26.03295 | 52.28537 | 1853 ft | 100 kts | 87° |
| 2026-04-23 00:18 | 26.03205 | 52.29303 | 1882 ft | 100 kts | 86° |
| 2026-04-23 00:19 | 26.03116 | 52.30071 | 1909 ft | 100 kts | 86° |
| 2026-04-23 00:19 | 26.03020 | 52.30844 | 1932 ft | 101 kts | 87° |
| 2026-04-23 00:19 | 26.02933 | 52.31355 | 1944 ft | 102 kts | 90° |
| 2026-04-23 00:19 | 26.02808 | 52.32130 | 1958 ft | 102 kts | 89° |
| 2026-04-23 00:20 | 26.02687 | 52.32901 | 1973 ft | 101 kts | 89° |
| 2026-04-23 00:20 | 26.02573 | 52.33673 | 1979 ft | 101 kts | 89° |
| 2026-04-23 00:20 | 26.02460 | 52.34445 | 1988 ft | 101 kts | 88° |
| 2026-04-23 00:20 | 26.02352 | 52.35218 | 1995 ft | 101 kts | 88° |
| 2026-04-23 00:21 | 26.02230 | 52.36250 | 2012 ft | 100 kts | 86° |
| 2026-04-23 00:21 | 26.02173 | 52.36761 | 2020 ft | 101 kts | 86° |
| 2026-04-23 00:21 | 26.02086 | 52.37532 | 2035 ft | 100 kts | 86° |
| 2026-04-23 00:21 | 26.02000 | 52.38302 | 2051 ft | 100 kts | 86° |
| 2026-04-23 00:22 | 26.01912 | 52.39072 | 2064 ft | 101 kts | 87° |
| 2026-04-23 00:22 | 26.01807 | 52.39844 | 2073 ft | 101 kts | 89° |
| 2026-04-23 00:22 | 26.01703 | 52.40616 | 2079 ft | 101 kts | 88° |
| 2026-04-23 00:22 | 26.01599 | 52.41389 | 2084 ft | 101 kts | 88° |
| 2026-04-23 00:23 | 26.01494 | 52.42161 | 2086 ft | 101 kts | 88° |
| 2026-04-23 00:23 | 26.01384 | 52.42933 | 2090 ft | 101 kts | 89° |
| 2026-04-23 00:23 | 26.01270 | 52.43704 | 2095 ft | 101 kts | 89° |
| 2026-04-23 00:23 | 26.01164 | 52.44475 | 2106 ft | 101 kts | 88° |
| 2026-04-23 00:24 | 26.01069 | 52.45236 | 2119 ft | 101 kts | 88° |
| 2026-04-23 00:24 | 26.00972 | 52.46008 | 2138 ft | 101 kts | 88° |
| 2026-04-23 00:24 | 26.00874 | 52.46781 | 2154 ft | 101 kts | 88° |
| 2026-04-23 00:24 | 26.00770 | 52.47556 | 2172 ft | 101 kts | 88° |
| 2026-04-23 00:25 | 26.00659 | 52.48331 | 2185 ft | 101 kts | 89° |
| 2026-04-23 00:25 | 26.00546 | 52.49104 | 2193 ft | 101 kts | 90° |
| 2026-04-23 00:25 | 26.00434 | 52.49877 | 2194 ft | 101 kts | 89° |
| 2026-04-23 00:25 | 26.00323 | 52.50650 | 2195 ft | 101 kts | 89° |
| 2026-04-23 00:26 | 26.00210 | 52.51424 | 2197 ft | 101 kts | 90° |
| 2026-04-23 00:26 | 26.00094 | 52.52197 | 2198 ft | 101 kts | 90° |
| 2026-04-23 00:26 | 25.99974 | 52.52970 | 2203 ft | 101 kts | 90° |
| 2026-04-23 00:26 | 25.99850 | 52.53744 | 2209 ft | 102 kts | 91° |
| 2026-04-23 00:27 | 25.99711 | 52.54519 | 2245 ft | 102 kts | 92° |
| 2026-04-23 00:27 | 25.99548 | 52.55285 | 2281 ft | 101 kts | 94° |
| 2026-04-23 00:27 | 25.99407 | 52.56052 | 2303 ft | 102 kts | 91° |
| 2026-04-23 00:27 | 25.99281 | 52.56827 | 2343 ft | 102 kts | 91° |
| 2026-04-23 00:28 | 25.99162 | 52.57594 | 2367 ft | 100 kts | 90° |
| 2026-04-23 00:28 | 25.99057 | 52.58361 | 2373 ft | 101 kts | 89° |
| 2026-04-23 00:28 | 25.98975 | 52.59129 | 2408 ft | 100 kts | 87° |
| 2026-04-23 00:28 | 25.98894 | 52.59898 | 2415 ft | 100 kts | 87° |
| 2026-04-23 00:29 | 25.98797 | 52.60674 | 2417 ft | 101 kts | 89° |
| 2026-04-23 00:29 | 25.98688 | 52.61446 | 2422 ft | 101 kts | 90° |
| 2026-04-23 00:29 | 25.98569 | 52.62220 | 2423 ft | 102 kts | 91° |
| 2026-04-23 00:29 | 25.98427 | 52.62993 | 2437 ft | 102 kts | 93° |
| 2026-04-23 00:30 | 25.98306 | 52.63761 | 2477 ft | 100 kts | 90° |
| 2026-04-23 00:30 | 25.98219 | 52.64529 | 2509 ft | 101 kts | 88° |
| 2026-04-23 00:30 | 25.98141 | 52.65297 | 2515 ft | 100 kts | 87° |
| 2026-04-23 00:30 | 25.98056 | 52.66072 | 2527 ft | 101 kts | 88° |
| 2026-04-23 00:31 | 25.97968 | 52.66845 | 2543 ft | 101 kts | 88° |
| 2026-04-23 00:31 | 25.97861 | 52.67621 | 2544 ft | 102 kts | 90° |
| 2026-04-23 00:31 | 25.97724 | 52.68399 | 2540 ft | 103 kts | 92° |
| 2026-04-23 00:31 | 25.97564 | 52.69177 | 2557 ft | 103 kts | 94° |
| 2026-04-23 00:32 | 25.97394 | 52.69944 | 2581 ft | 103 kts | 96° |
| 2026-04-23 00:32 | 25.97202 | 52.70709 | 2607 ft | 103 kts | 98° |
| 2026-04-23 00:32 | 25.97004 | 52.71464 | 2622 ft | 102 kts | 98° |
| 2026-04-23 00:32 | 25.96875 | 52.72231 | 2622 ft | 101 kts | 91° |
| 2026-04-23 00:33 | 25.96780 | 52.73005 | 2624 ft | 102 kts | 89° |
| 2026-04-23 00:33 | 25.96687 | 52.73787 | 2641 ft | 102 kts | 88° |
| 2026-04-23 00:33 | 25.96601 | 52.74558 | 2665 ft | 100 kts | 89° |
| 2026-04-23 00:33 | 25.96523 | 52.75325 | 2632 ft | 100 kts | 88° |
| 2026-04-23 00:34 | 25.96436 | 52.76102 | 2600 ft | 103 kts | 89° |
| 2026-04-23 00:34 | 25.96315 | 52.76882 | 2609 ft | 102 kts | 91° |
| 2026-04-23 00:34 | 25.96183 | 52.77658 | 2600 ft | 102 kts | 93° |
| 2026-04-23 00:34 | 25.96038 | 52.78427 | 2602 ft | 102 kts | 94° |
| 2026-04-23 00:35 | 25.95898 | 52.79201 | 2560 ft | 103 kts | 94° |
| 2026-04-23 00:35 | 25.95745 | 52.79977 | 2602 ft | 103 kts | 95° |
| 2026-04-23 00:35 | 25.95548 | 52.80744 | 2627 ft | 103 kts | 99° |
| 2026-04-23 00:35 | 25.95330 | 52.81506 | 2633 ft | 103 kts | 100° |
| 2026-04-23 00:36 | 25.95124 | 52.82268 | 2625 ft | 103 kts | 99° |
| 2026-04-23 00:36 | 25.94932 | 52.83036 | 2604 ft | 104 kts | 98° |
| 2026-04-23 00:36 | 25.94729 | 52.83810 | 2589 ft | 104 kts | 99° |
| 2026-04-23 00:36 | 25.94521 | 52.84567 | 2572 ft | 102 kts | 100° |
| 2026-04-23 00:37 | 25.94346 | 52.85331 | 2581 ft | 102 kts | 96° |
| 2026-04-23 00:37 | 25.94209 | 52.86110 | 2562 ft | 102 kts | 94° |
| 2026-04-23 00:37 | 25.94086 | 52.86878 | 2591 ft | 101 kts | 93° |
| 2026-04-23 00:37 | 25.93957 | 52.87650 | 2565 ft | 103 kts | 94° |
| 2026-04-23 00:38 | 25.93806 | 52.88429 | 2569 ft | 103 kts | 96° |
| 2026-04-23 00:38 | 25.93625 | 52.89197 | 2560 ft | 103 kts | 98° |
| 2026-04-23 00:38 | 25.93424 | 52.89962 | 2587 ft | 103 kts | 100° |
| 2026-04-23 00:38 | 25.93208 | 52.90725 | 2563 ft | 104 kts | 100° |
| 2026-04-23 00:39 | 25.93058 | 52.91504 | 2541 ft | 102 kts | 95° |
| 2026-04-23 00:39 | 25.92939 | 52.92285 | 2495 ft | 103 kts | 93° |
| 2026-04-23 00:39 | 25.92834 | 52.93069 | 2454 ft | 102 kts | 92° |
| 2026-04-23 00:39 | 25.92755 | 52.93842 | 2428 ft | 100 kts | 90° |
| 2026-04-23 00:40 | 25.92683 | 52.94612 | 2389 ft | 101 kts | 89° |
| 2026-04-23 00:40 | 25.92611 | 52.95386 | 2353 ft | 101 kts | 89° |
| 2026-04-23 00:40 | 25.92535 | 52.96161 | 2328 ft | 101 kts | 90° |
| 2026-04-23 00:40 | 25.92453 | 52.96933 | 2306 ft | 101 kts | 90° |
| 2026-04-23 00:41 | 25.92366 | 52.97705 | 2281 ft | 101 kts | 91° |
| 2026-04-23 00:41 | 25.92276 | 52.98479 | 2256 ft | 101 kts | 91° |
| 2026-04-23 00:41 | 25.92182 | 52.99253 | 2234 ft | 101 kts | 91° |
| 2026-04-23 00:41 | 25.92088 | 53.00023 | 2212 ft | 100 kts | 92° |
| 2026-04-23 00:42 | 25.91991 | 53.00793 | 2182 ft | 101 kts | 92° |
| 2026-04-23 00:42 | 25.91891 | 53.01565 | 2152 ft | 101 kts | 92° |
| 2026-04-23 00:42 | 25.91787 | 53.02335 | 2123 ft | 101 kts | 93° |
| 2026-04-23 00:42 | 25.91679 | 53.03105 | 2094 ft | 101 kts | 93° |
| 2026-04-23 00:43 | 25.91568 | 53.03875 | 2062 ft | 101 kts | 94° |
| 2026-04-23 00:43 | 25.91453 | 53.04644 | 2031 ft | 101 kts | 94° |
| 2026-04-23 00:43 | 25.91345 | 53.05414 | 2001 ft | 101 kts | 93° |
| 2026-04-23 00:43 | 25.91244 | 53.06185 | 1975 ft | 101 kts | 92° |
| 2026-04-23 00:44 | 25.91142 | 53.06945 | 1949 ft | 101 kts | 93° |
| 2026-04-23 00:44 | 25.91037 | 53.07716 | 1931 ft | 101 kts | 93° |
| 2026-04-23 00:44 | 25.90928 | 53.08486 | 1912 ft | 101 kts | 94° |
| 2026-04-23 00:44 | 25.90816 | 53.09257 | 1892 ft | 101 kts | 94° |
| 2026-04-23 00:45 | 25.90700 | 53.10028 | 1877 ft | 101 kts | 94° |
| 2026-04-23 00:45 | 25.90584 | 53.10799 | 1858 ft | 101 kts | 94° |
| 2026-04-23 00:45 | 25.90480 | 53.11573 | 1838 ft | 101 kts | 93° |
| 2026-04-23 00:45 | 25.90385 | 53.12340 | 1825 ft | 100 kts | 93° |
| 2026-04-23 00:46 | 25.90293 | 53.13108 | 1808 ft | 101 kts | 92° |
| 2026-04-23 00:46 | 25.90200 | 53.13878 | 1791 ft | 101 kts | 93° |
| 2026-04-23 00:46 | 25.90107 | 53.14647 | 1778 ft | 101 kts | 93° |
| 2026-04-23 00:46 | 25.90010 | 53.15419 | 1766 ft | 101 kts | 93° |
| 2026-04-23 00:47 | 25.89910 | 53.16189 | 1758 ft | 101 kts | 94° |
| 2026-04-23 00:47 | 25.89807 | 53.16959 | 1744 ft | 101 kts | 94° |
| 2026-04-23 00:47 | 25.89715 | 53.17730 | 1732 ft | 101 kts | 92° |
| 2026-04-23 00:47 | 25.89661 | 53.18505 | 1728 ft | 101 kts | 89° |
| 2026-04-23 00:48 | 25.89616 | 53.19279 | 1729 ft | 100 kts | 89° |
| 2026-04-23 00:48 | 25.89572 | 53.20052 | 1729 ft | 100 kts | 89° |
| 2026-04-23 00:48 | 25.89534 | 53.20828 | 1728 ft | 101 kts | 88° |
| 2026-04-23 00:48 | 25.89500 | 53.21603 | 1728 ft | 100 kts | 88° |
| 2026-04-23 00:49 | 25.89466 | 53.22377 | 1728 ft | 100 kts | 88° |
| 2026-04-23 00:49 | 25.89431 | 53.23153 | 1732 ft | 101 kts | 88° |
| 2026-04-23 00:49 | 25.89393 | 53.23930 | 1740 ft | 101 kts | 88° |
| 2026-04-23 00:49 | 25.89352 | 53.24706 | 1748 ft | 101 kts | 89° |
| 2026-04-23 00:50 | 25.89309 | 53.25483 | 1759 ft | 101 kts | 89° |
| 2026-04-23 00:50 | 25.89262 | 53.26262 | 1766 ft | 101 kts | 89° |
| 2026-04-23 00:50 | 25.89213 | 53.27040 | 1771 ft | 101 kts | 90° |
| 2026-04-23 00:50 | 25.89163 | 53.27813 | 1779 ft | 100 kts | 90° |
| 2026-04-23 00:51 | 25.89113 | 53.28577 | 1783 ft | 101 kts | 90° |
| 2026-04-23 00:51 | 25.89065 | 53.29353 | 1788 ft | 101 kts | 90° |
| 2026-04-23 00:51 | 25.89025 | 53.30130 | 1801 ft | 101 kts | 89° |
| 2026-04-23 00:51 | 25.88992 | 53.30906 | 1813 ft | 101 kts | 89° |
| 2026-04-23 00:52 | 25.88967 | 53.31686 | 1826 ft | 101 kts | 88° |
| 2026-04-23 00:52 | 25.88945 | 53.32462 | 1833 ft | 101 kts | 88° |
| 2026-04-23 00:52 | 25.88935 | 53.33242 | 1835 ft | 101 kts | 87° |
| 2026-04-23 00:52 | 25.88928 | 53.34020 | 1838 ft | 101 kts | 86° |
| 2026-04-23 00:53 | 25.88920 | 53.34799 | 1836 ft | 101 kts | 86° |
| 2026-04-23 00:53 | 25.88909 | 53.35578 | 1835 ft | 101 kts | 87° |
| 2026-04-23 00:53 | 25.88896 | 53.36358 | 1841 ft | 101 kts | 87° |
| 2026-04-23 00:53 | 25.88880 | 53.37139 | 1852 ft | 101 kts | 88° |
| 2026-04-23 00:54 | 25.88832 | 53.37920 | 1855 ft | 102 kts | 92° |
| 2026-04-23 00:54 | 25.88758 | 53.38703 | 1867 ft | 102 kts | 92° |
| 2026-04-23 00:54 | 25.88689 | 53.39484 | 1876 ft | 102 kts | 92° |
| 2026-04-23 00:54 | 25.88620 | 53.40267 | 1876 ft | 102 kts | 92° |
| 2026-04-23 00:55 | 25.88551 | 53.41050 | 1881 ft | 102 kts | 92° |
| 2026-04-23 00:55 | 25.88480 | 53.41833 | 1884 ft | 102 kts | 92° |
| 2026-04-23 00:55 | 25.88406 | 53.42617 | 1882 ft | 102 kts | 93° |
| 2026-04-23 00:55 | 25.88332 | 53.43401 | 1884 ft | 102 kts | 93° |
| 2026-04-23 00:56 | 25.88259 | 53.44186 | 1888 ft | 102 kts | 93° |
| 2026-04-23 00:56 | 25.88186 | 53.44961 | 1890 ft | 102 kts | 93° |
| 2026-04-23 00:56 | 25.88136 | 53.45746 | 1889 ft | 102 kts | 90° |
| 2026-04-23 00:56 | 25.88126 | 53.46533 | 1892 ft | 102 kts | 88° |
| 2026-04-23 00:57 | 25.88137 | 53.47317 | 1892 ft | 101 kts | 85° |
| 2026-04-23 00:57 | 25.88169 | 53.48100 | 1893 ft | 102 kts | 84° |
| 2026-04-23 00:57 | 25.88204 | 53.48884 | 1900 ft | 102 kts | 84° |
| 2026-04-23 00:57 | 25.88196 | 53.49672 | 1902 ft | 102 kts | 88° |
| 2026-04-23 00:58 | 25.88158 | 53.50462 | 1906 ft | 102 kts | 90° |
| 2026-04-23 00:58 | 25.88108 | 53.51251 | 1912 ft | 102 kts | 91° |
| 2026-04-23 00:58 | 25.88077 | 53.52038 | 1927 ft | 101 kts | 90° |
| 2026-04-23 00:58 | 25.88055 | 53.52818 | 1934 ft | 101 kts | 89° |
| 2026-04-23 00:59 | 25.88034 | 53.53602 | 1945 ft | 102 kts | 89° |
| 2026-04-23 00:59 | 25.88020 | 53.54385 | 1963 ft | 101 kts | 89° |
| 2026-04-23 00:59 | 25.88007 | 53.55169 | 1979 ft | 102 kts | 89° |
| 2026-04-23 00:59 | 25.87992 | 53.55955 | 1998 ft | 102 kts | 89° |
| 2026-04-23 01:00 | 25.87974 | 53.56740 | 2014 ft | 102 kts | 89° |
| 2026-04-23 01:00 | 25.87955 | 53.57525 | 2024 ft | 102 kts | 89° |
| 2026-04-23 01:00 | 25.87932 | 53.58312 | 2035 ft | 102 kts | 89° |
| 2026-04-23 01:00 | 25.87909 | 53.59099 | 2045 ft | 102 kts | 89° |
| 2026-04-23 01:01 | 25.87889 | 53.59885 | 2051 ft | 102 kts | 89° |
| 2026-04-23 01:01 | 25.87874 | 53.60680 | 2046 ft | 103 kts | 89° |
| 2026-04-23 01:01 | 25.87861 | 53.61475 | 2060 ft | 103 kts | 88° |
| 2026-04-23 01:01 | 25.87848 | 53.62267 | 2070 ft | 103 kts | 89° |
| 2026-04-23 01:02 | 25.87832 | 53.63062 | 2075 ft | 103 kts | 89° |
| 2026-04-23 01:02 | 25.87791 | 53.63858 | 2086 ft | 104 kts | 92° |
| 2026-04-23 01:02 | 25.87713 | 53.64652 | 2101 ft | 103 kts | 94° |
| 2026-04-23 01:02 | 25.87685 | 53.65448 | 2113 ft | 103 kts | 90° |
| 2026-04-23 01:03 | 25.87662 | 53.65976 | 2125 ft | 103 kts | 90° |
| 2026-04-23 01:03 | 25.87620 | 53.66773 | 2140 ft | 103 kts | 91° |
| 2026-04-23 01:03 | 25.87572 | 53.67570 | 2152 ft | 103 kts | 92° |
| 2026-04-23 01:03 | 25.87504 | 53.68624 | 2156 ft | 103 kts | 92° |
| 2026-04-23 01:04 | 25.87467 | 53.69162 | 2155 ft | 104 kts | 92° |
| 2026-04-23 01:04 | 25.87408 | 53.69959 | 2154 ft | 103 kts | 92° |
| 2026-04-23 01:04 | 25.87290 | 53.71552 | 2161 ft | 103 kts | 92° |
| 2026-04-23 01:05 | 25.87234 | 53.72347 | 2178 ft | 103 kts | 92° |
| 2026-04-23 01:05 | 25.87179 | 53.73144 | 2190 ft | 103 kts | 92° |
| 2026-04-23 01:05 | 25.87127 | 53.73941 | 2202 ft | 104 kts | 92° |
| 2026-04-23 01:05 | 25.87078 | 53.74739 | 2213 ft | 103 kts | 92° |
| 2026-04-23 01:06 | 25.87032 | 53.75536 | 2218 ft | 104 kts | 92° |
| 2026-04-23 01:06 | 25.86989 | 53.76334 | 2220 ft | 104 kts | 91° |
| 2026-04-23 01:06 | 25.86950 | 53.77122 | 2222 ft | 104 kts | 91° |
| 2026-04-23 01:06 | 25.86912 | 53.77921 | 2222 ft | 104 kts | 91° |
| 2026-04-23 01:07 | 25.86877 | 53.78718 | 2222 ft | 103 kts | 91° |
| 2026-04-23 01:07 | 25.86846 | 53.79516 | 2226 ft | 104 kts | 90° |
| 2026-04-23 01:07 | 25.86818 | 53.80316 | 2231 ft | 104 kts | 90° |
| 2026-04-23 01:07 | 25.86793 | 53.81114 | 2238 ft | 103 kts | 90° |
| 2026-04-23 01:08 | 25.86771 | 53.81912 | 2245 ft | 104 kts | 90° |
| 2026-04-23 01:08 | 25.86751 | 53.82711 | 2253 ft | 104 kts | 90° |
| 2026-04-23 01:08 | 25.86734 | 53.83510 | 2259 ft | 104 kts | 89° |
| 2026-04-23 01:08 | 25.86720 | 53.84310 | 2269 ft | 104 kts | 89° |
| 2026-04-23 01:09 | 25.86708 | 53.85110 | 2280 ft | 104 kts | 89° |
| 2026-04-23 01:09 | 25.86698 | 53.85909 | 2285 ft | 104 kts | 89° |
| 2026-04-23 01:09 | 25.86690 | 53.86710 | 2285 ft | 104 kts | 89° |
| 2026-04-23 01:09 | 25.86685 | 53.87510 | 2283 ft | 103 kts | 89° |
| 2026-04-23 01:10 | 25.86681 | 53.88309 | 2275 ft | 103 kts | 89° |
| 2026-04-23 01:10 | 25.86677 | 53.89108 | 2263 ft | 104 kts | 89° |
| 2026-04-23 01:10 | 25.86671 | 53.89907 | 2256 ft | 104 kts | 89° |
| 2026-04-23 01:10 | 25.86627 | 53.90705 | 2245 ft | 104 kts | 93° |
| 2026-04-23 01:11 | 25.86557 | 53.91504 | 2231 ft | 104 kts | 94° |
| 2026-04-23 01:11 | 25.86487 | 53.92300 | 2225 ft | 104 kts | 94° |
| 2026-04-23 01:11 | 25.86414 | 53.93095 | 2223 ft | 104 kts | 95° |
| 2026-04-23 01:11 | 25.86338 | 53.93891 | 2220 ft | 104 kts | 95° |
| 2026-04-23 01:12 | 25.86258 | 53.94686 | 2222 ft | 104 kts | 95° |
| 2026-04-23 01:12 | 25.86174 | 53.95482 | 2227 ft | 104 kts | 96° |
| 2026-04-23 01:12 | 25.86087 | 53.96276 | 2230 ft | 104 kts | 96° |
| 2026-04-23 01:12 | 25.85996 | 53.97069 | 2233 ft | 104 kts | 96° |
| 2026-04-23 01:13 | 25.85900 | 53.97862 | 2237 ft | 104 kts | 97° |
| 2026-04-23 01:13 | 25.85801 | 53.98656 | 2235 ft | 104 kts | 97° |
| 2026-04-23 01:13 | 25.85706 | 53.99449 | 2232 ft | 104 kts | 96° |
| 2026-04-23 01:13 | 25.85633 | 54.00245 | 2231 ft | 104 kts | 94° |
| 2026-04-23 01:14 | 25.85575 | 54.01041 | 2230 ft | 104 kts | 94° |
| 2026-04-23 01:14 | 25.85514 | 54.01838 | 2228 ft | 104 kts | 94° |
| 2026-04-23 01:14 | 25.85449 | 54.02637 | 2228 ft | 104 kts | 94° |
| 2026-04-23 01:14 | 25.85381 | 54.03433 | 2227 ft | 104 kts | 94° |
| 2026-04-23 01:15 | 25.85309 | 54.04229 | 2227 ft | 104 kts | 95° |
| 2026-04-23 01:15 | 25.85235 | 54.05024 | 2227 ft | 103 kts | 95° |
| 2026-04-23 01:15 | 25.85117 | 54.05805 | 2222 ft | 104 kts | 99° |
| 2026-04-23 01:15 | 25.84994 | 54.06595 | 2231 ft | 104 kts | 99° |
| 2026-04-23 01:16 | 25.84839 | 54.07376 | 2229 ft | 104 kts | 104° |
| 2026-04-23 01:16 | 25.84603 | 54.08138 | 2232 ft | 104 kts | 109° |
| 2026-04-23 01:16 | 25.84367 | 54.08894 | 2246 ft | 103 kts | 109° |
| 2026-04-23 01:16 | 25.84128 | 54.09647 | 2241 ft | 104 kts | 110° |
| 2026-04-23 01:17 | 25.83868 | 54.10395 | 2239 ft | 104 kts | 111° |
| 2026-04-23 01:17 | 25.83615 | 54.11144 | 2242 ft | 104 kts | 111° |
| 2026-04-23 01:17 | 25.83361 | 54.11893 | 2236 ft | 104 kts | 111° |
| 2026-04-23 01:17 | 25.83106 | 54.12641 | 2238 ft | 104 kts | 111° |
| 2026-04-23 01:18 | 25.82850 | 54.13388 | 2241 ft | 104 kts | 111° |
| 2026-04-23 01:18 | 25.82591 | 54.14137 | 2241 ft | 104 kts | 111° |
| 2026-04-23 01:18 | 25.82336 | 54.14886 | 2243 ft | 104 kts | 111° |
| 2026-04-23 01:18 | 25.82082 | 54.15635 | 2243 ft | 104 kts | 111° |
| 2026-04-23 01:19 | 25.81831 | 54.16379 | 2250 ft | 102 kts | 111° |
| 2026-04-23 01:19 | 25.81618 | 54.17134 | 2247 ft | 103 kts | 107° |
| 2026-04-23 01:19 | 25.81411 | 54.17894 | 2243 ft | 103 kts | 107° |
| 2026-04-23 01:19 | 25.81203 | 54.18652 | 2246 ft | 103 kts | 107° |
| 2026-04-23 01:20 | 25.81001 | 54.19412 | 2245 ft | 103 kts | 106° |
| 2026-04-23 01:20 | 25.80798 | 54.20172 | 2244 ft | 103 kts | 106° |
| 2026-04-23 01:20 | 25.80594 | 54.20928 | 2248 ft | 103 kts | 107° |
| 2026-04-23 01:20 | 25.80385 | 54.21689 | 2252 ft | 103 kts | 107° |
| 2026-04-23 01:21 | 25.80173 | 54.22446 | 2258 ft | 103 kts | 107° |
| 2026-04-23 01:21 | 25.79960 | 54.23191 | 2264 ft | 103 kts | 108° |
| 2026-04-23 01:21 | 25.79737 | 54.23955 | 2271 ft | 103 kts | 108° |
| 2026-04-23 01:21 | 25.79517 | 54.24699 | 2276 ft | 103 kts | 108° |
| 2026-04-23 01:22 | 25.79291 | 54.25450 | 2273 ft | 103 kts | 109° |
| 2026-04-23 01:22 | 25.79062 | 54.26200 | 2272 ft | 102 kts | 109° |
| 2026-04-23 01:22 | 25.78831 | 54.26948 | 2265 ft | 103 kts | 109° |
| 2026-04-23 01:22 | 25.78597 | 54.27696 | 2252 ft | 103 kts | 109° |
| 2026-04-23 01:23 | 25.78360 | 54.28442 | 2246 ft | 103 kts | 110° |
| 2026-04-23 01:23 | 25.78135 | 54.29194 | 2241 ft | 103 kts | 108° |
| 2026-04-23 01:23 | 25.77901 | 54.29942 | 2231 ft | 103 kts | 109° |
| 2026-04-23 01:23 | 25.77674 | 54.30692 | 2220 ft | 102 kts | 108° |
| 2026-04-23 01:24 | 25.77449 | 54.31442 | 2208 ft | 103 kts | 108° |
| 2026-04-23 01:24 | 25.77222 | 54.32192 | 2201 ft | 103 kts | 109° |
| 2026-04-23 01:24 | 25.76992 | 54.32941 | 2193 ft | 103 kts | 109° |
| 2026-04-23 01:24 | 25.76757 | 54.33690 | 2192 ft | 103 kts | 109° |
| 2026-04-23 01:25 | 25.76518 | 54.34433 | 2201 ft | 102 kts | 110° |
| 2026-04-23 01:25 | 25.76276 | 54.35168 | 2214 ft | 101 kts | 110° |
| 2026-04-23 01:25 | 25.76031 | 54.35900 | 2213 ft | 102 kts | 110° |
| 2026-04-23 01:25 | 25.75780 | 54.36635 | 2215 ft | 102 kts | 111° |
| 2026-04-23 01:26 | 25.75527 | 54.37367 | 2214 ft | 102 kts | 111° |
| 2026-04-23 01:26 | 25.75270 | 54.38096 | 2211 ft | 102 kts | 111° |
| 2026-04-23 01:26 | 25.75008 | 54.38825 | 2209 ft | 102 kts | 112° |
| 2026-04-23 01:26 | 25.74742 | 54.39552 | 2200 ft | 102 kts | 112° |
| 2026-04-23 01:27 | 25.74465 | 54.40275 | 2189 ft | 102 kts | 114° |
| 2026-04-23 01:27 | 25.74180 | 54.40991 | 2181 ft | 101 kts | 114° |
| 2026-04-23 01:27 | 25.73889 | 54.41703 | 2174 ft | 101 kts | 115° |
| 2026-04-23 01:27 | 25.73593 | 54.42415 | 2162 ft | 101 kts | 115° |
| 2026-04-23 01:28 | 25.73294 | 54.43124 | 2150 ft | 101 kts | 116° |
| 2026-04-23 01:28 | 25.72991 | 54.43830 | 2149 ft | 101 kts | 116° |
| 2026-04-23 01:28 | 25.72682 | 54.44534 | 2142 ft | 101 kts | 116° |
| 2026-04-23 01:28 | 25.72368 | 54.45234 | 2135 ft | 101 kts | 117° |
| 2026-04-23 01:29 | 25.72050 | 54.45932 | 2123 ft | 101 kts | 117° |
| 2026-04-23 01:29 | 25.71728 | 54.46626 | 2116 ft | 101 kts | 118° |
| 2026-04-23 01:29 | 25.71405 | 54.47307 | 2118 ft | 100 kts | 118° |
| 2026-04-23 01:29 | 25.71075 | 54.47989 | 2106 ft | 100 kts | 118° |
| 2026-04-23 01:30 | 25.70742 | 54.48670 | 2105 ft | 100 kts | 119° |
| 2026-04-23 01:30 | 25.70407 | 54.49347 | 2112 ft | 100 kts | 120° |
| 2026-04-23 01:30 | 25.70064 | 54.50021 | 2115 ft | 100 kts | 120° |
| 2026-04-23 01:30 | 25.69719 | 54.50682 | 2121 ft | 100 kts | 121° |
| 2026-04-23 01:31 | 25.69365 | 54.51346 | 2123 ft | 100 kts | 121° |
| 2026-04-23 01:31 | 25.69006 | 54.52010 | 2129 ft | 100 kts | 122° |
| 2026-04-23 01:31 | 25.68643 | 54.52670 | 2133 ft | 100 kts | 122° |
| 2026-04-23 01:31 | 25.68275 | 54.53327 | 2126 ft | 100 kts | 123° |
| 2026-04-23 01:32 | 25.67902 | 54.53980 | 2129 ft | 100 kts | 123° |
| 2026-04-23 01:32 | 25.67525 | 54.54629 | 2123 ft | 100 kts | 124° |
| 2026-04-23 01:32 | 25.67140 | 54.55274 | 2121 ft | 100 kts | 124° |
| 2026-04-23 01:32 | 25.66787 | 54.55940 | 2101 ft | 101 kts | 119° |
| 2026-04-23 01:33 | 25.66551 | 54.56675 | 2097 ft | 100 kts | 109° |
| 2026-04-23 01:33 | 25.66363 | 54.57407 | 2106 ft | 99 kts | 105° |
| 2026-04-23 01:33 | 25.66184 | 54.58147 | 2099 ft | 100 kts | 105° |
| 2026-04-23 01:33 | 25.65996 | 54.58887 | 2092 ft | 99 kts | 105° |
| 2026-04-23 01:34 | 25.65803 | 54.59621 | 2103 ft | 99 kts | 106° |
| 2026-04-23 01:34 | 25.65603 | 54.60356 | 2103 ft | 100 kts | 107° |
| 2026-04-23 01:34 | 25.65393 | 54.61088 | 2096 ft | 100 kts | 108° |
| 2026-04-23 01:34 | 25.65171 | 54.61813 | 2090 ft | 99 kts | 109° |
| 2026-04-23 01:35 | 25.64942 | 54.62534 | 2084 ft | 99 kts | 109° |
| 2026-04-23 01:35 | 25.64706 | 54.63256 | 2082 ft | 100 kts | 110° |
| 2026-04-23 01:35 | 25.64460 | 54.63972 | 2080 ft | 99 kts | 111° |
| 2026-04-23 01:35 | 25.64212 | 54.64676 | 2074 ft | 99 kts | 111° |
| 2026-04-23 01:36 | 25.63956 | 54.65386 | 2072 ft | 99 kts | 112° |
| 2026-04-23 01:36 | 25.63697 | 54.66096 | 2073 ft | 99 kts | 112° |
| 2026-04-23 01:36 | 25.63452 | 54.66810 | 2081 ft | 99 kts | 111° |
| 2026-04-23 01:36 | 25.63209 | 54.67526 | 2082 ft | 98 kts | 111° |
| 2026-04-23 01:37 | 25.62965 | 54.68231 | 2089 ft | 98 kts | 111° |
| 2026-04-23 01:37 | 25.62718 | 54.68937 | 2090 ft | 98 kts | 111° |
| 2026-04-23 01:37 | 25.62466 | 54.69642 | 2088 ft | 98 kts | 111° |
| 2026-04-23 01:37 | 25.62211 | 54.70344 | 2097 ft | 98 kts | 112° |
| 2026-04-23 01:38 | 25.61907 | 54.71024 | 2081 ft | 99 kts | 117° |
| 2026-04-23 01:38 | 25.61597 | 54.71701 | 2080 ft | 98 kts | 117° |
| 2026-04-23 01:38 | 25.61300 | 54.72382 | 2068 ft | 98 kts | 116° |
| 2026-04-23 01:38 | 25.61004 | 54.73065 | 2068 ft | 98 kts | 116° |
| 2026-04-23 01:39 | 25.60706 | 54.73746 | 2070 ft | 98 kts | 116° |
| 2026-04-23 01:39 | 25.60403 | 54.74423 | 2074 ft | 98 kts | 117° |
| 2026-04-23 01:39 | 25.60096 | 54.75098 | 2075 ft | 98 kts | 117° |
| 2026-04-23 01:39 | 25.59785 | 54.75771 | 2074 ft | 98 kts | 117° |
| 2026-04-23 01:40 | 25.59473 | 54.76444 | 2080 ft | 98 kts | 117° |
| 2026-04-23 01:40 | 25.59162 | 54.77117 | 2075 ft | 98 kts | 117° |
| 2026-04-23 01:40 | 25.58848 | 54.77788 | 2071 ft | 98 kts | 118° |
| 2026-04-23 01:40 | 25.58532 | 54.78452 | 2077 ft | 97 kts | 118° |
| 2026-04-23 01:41 | 25.58214 | 54.79110 | 2083 ft | 97 kts | 118° |
| 2026-04-23 01:41 | 25.57890 | 54.79769 | 2074 ft | 97 kts | 119° |
| 2026-04-23 01:41 | 25.57564 | 54.80425 | 2075 ft | 97 kts | 119° |
| 2026-04-23 01:41 | 25.57237 | 54.81073 | 2066 ft | 97 kts | 120° |
| 2026-04-23 01:42 | 25.56922 | 54.81741 | 2072 ft | 97 kts | 117° |
| 2026-04-23 01:42 | 25.56652 | 54.82428 | 2070 ft | 97 kts | 113° |
| 2026-04-23 01:42 | 25.56398 | 54.83121 | 2077 ft | 97 kts | 112° |
| 2026-04-23 01:42 | 25.56146 | 54.83814 | 2068 ft | 97 kts | 112° |
| 2026-04-23 01:43 | 25.55892 | 54.84509 | 2077 ft | 97 kts | 112° |
| 2026-04-23 01:43 | 25.55637 | 54.85201 | 2089 ft | 97 kts | 112° |
| 2026-04-23 01:43 | 25.55379 | 54.85884 | 2109 ft | 96 kts | 112° |
| 2026-04-23 01:43 | 25.55118 | 54.86565 | 2112 ft | 96 kts | 113° |
| 2026-04-23 01:44 | 25.54855 | 54.87238 | 2113 ft | 96 kts | 114° |
| 2026-04-23 01:44 | 25.54586 | 54.87916 | 2117 ft | 96 kts | 114° |
| 2026-04-23 01:44 | 25.54314 | 54.88591 | 2116 ft | 96 kts | 114° |
| 2026-04-23 01:44 | 25.54037 | 54.89266 | 2126 ft | 96 kts | 115° |
| 2026-04-23 01:45 | 25.53757 | 54.89939 | 2126 ft | 96 kts | 115° |
| 2026-04-23 01:45 | 25.53567 | 54.90394 | 2122 ft | 96 kts | 115° |
| 2026-04-23 01:45 | 25.53200 | 54.91281 | 2120 ft | 95 kts | 115° |
| 2026-04-23 01:45 | 25.52921 | 54.91943 | 2107 ft | 95 kts | 115° |
| 2026-04-23 01:46 | 25.52731 | 54.92392 | 2093 ft | 95 kts | 115° |
| 2026-04-23 01:46 | 25.52446 | 54.93054 | 2085 ft | 95 kts | 115° |
| 2026-04-23 01:46 | 25.52157 | 54.93715 | 2086 ft | 95 kts | 116° |
| 2026-04-23 01:46 | 25.51875 | 54.94367 | 2086 ft | 95 kts | 115° |
| 2026-04-23 01:47 | 25.51606 | 54.95037 | 2085 ft | 95 kts | 114° |
| 2026-04-23 01:47 | 25.51339 | 54.95719 | 2083 ft | 95 kts | 113° |
| 2026-04-23 01:47 | 25.51079 | 54.96383 | 2082 ft | 95 kts | 114° |
| 2026-04-23 01:47 | 25.50801 | 54.97048 | 2079 ft | 95 kts | 115° |
| 2026-04-23 01:48 | 25.50513 | 54.97709 | 2091 ft | 95 kts | 115° |
| 2026-04-23 01:48 | 25.50232 | 54.98372 | 2093 ft | 95 kts | 115° |
| 2026-04-23 01:48 | 25.49953 | 54.99036 | 2100 ft | 95 kts | 115° |
| 2026-04-23 01:48 | 25.49672 | 54.99695 | 2090 ft | 95 kts | 115° |
| 2026-04-23 01:49 | 25.49378 | 55.00354 | 2073 ft | 95 kts | 116° |
| 2026-04-23 01:49 | 25.49079 | 55.01006 | 2082 ft | 95 kts | 117° |
| 2026-04-23 01:49 | 25.48775 | 55.01655 | 2071 ft | 95 kts | 117° |
| 2026-04-23 01:49 | 25.48479 | 55.02308 | 2073 ft | 95 kts | 116° |
| 2026-04-23 01:50 | 25.48192 | 55.02967 | 2067 ft | 95 kts | 115° |
| 2026-04-23 01:50 | 25.47912 | 55.03629 | 2050 ft | 95 kts | 115° |
| 2026-04-23 01:50 | 25.47637 | 55.04293 | 2050 ft | 95 kts | 114° |
| 2026-04-23 01:50 | 25.47367 | 55.04958 | 2040 ft | 95 kts | 114° |
| 2026-04-23 01:51 | 25.47105 | 55.05619 | 2035 ft | 95 kts | 114° |
| 2026-04-23 01:51 | 25.46845 | 55.06290 | 2019 ft | 95 kts | 113° |
| 2026-04-23 01:51 | 25.46590 | 55.06962 | 1995 ft | 95 kts | 112° |
| 2026-04-23 01:51 | 25.46338 | 55.07636 | 1976 ft | 95 kts | 112° |
| 2026-04-23 01:52 | 25.46091 | 55.08311 | 1966 ft | 95 kts | 112° |
| 2026-04-23 01:52 | 25.45847 | 55.08988 | 1959 ft | 95 kts | 111° |
| 2026-04-23 01:52 | 25.45608 | 55.09667 | 1958 ft | 95 kts | 111° |
| 2026-04-23 01:52 | 25.45374 | 55.10347 | 1957 ft | 95 kts | 111° |
| 2026-04-23 01:53 | 25.45141 | 55.11029 | 1939 ft | 95 kts | 110° |
| 2026-04-23 01:53 | 25.44913 | 55.11712 | 1937 ft | 95 kts | 110° |
| 2026-04-23 01:53 | 25.44689 | 55.12398 | 1939 ft | 95 kts | 110° |
| 2026-04-23 01:53 | 25.44469 | 55.13081 | 1944 ft | 94 kts | 109° |
| 2026-04-23 01:54 | 25.44251 | 55.13761 | 1951 ft | 94 kts | 109° |
| 2026-04-23 01:54 | 25.44014 | 55.14433 | 1936 ft | 94 kts | 111° |
| 2026-04-23 01:54 | 25.43755 | 55.15098 | 1939 ft | 94 kts | 113° |
| 2026-04-23 01:54 | 25.43487 | 55.15756 | 1935 ft | 94 kts | 114° |
| 2026-04-23 01:55 | 25.43213 | 55.16410 | 1929 ft | 94 kts | 115° |
| 2026-04-23 01:55 | 25.42933 | 55.17062 | 1927 ft | 94 kts | 115° |
| 2026-04-23 01:55 | 25.42647 | 55.17710 | 1916 ft | 94 kts | 116° |
| 2026-04-23 01:55 | 25.42356 | 55.18357 | 1910 ft | 94 kts | 116° |
| 2026-04-23 01:56 | 25.42061 | 55.19000 | 1901 ft | 94 kts | 117° |
| 2026-04-23 01:56 | 25.41765 | 55.19643 | 1897 ft | 94 kts | 117° |
| 2026-04-23 01:56 | 25.41471 | 55.20287 | 1897 ft | 94 kts | 116° |
| 2026-04-23 01:56 | 25.41177 | 55.20930 | 1897 ft | 94 kts | 116° |
| 2026-04-23 01:57 | 25.40878 | 55.21571 | 1893 ft | 94 kts | 117° |
| 2026-04-23 01:57 | 25.40561 | 55.22203 | 1875 ft | 94 kts | 118° |
| 2026-04-23 01:57 | 25.40254 | 55.22839 | 1862 ft | 94 kts | 117° |
| 2026-04-23 01:57 | 25.39959 | 55.23481 | 1858 ft | 94 kts | 117° |
| 2026-04-23 01:58 | 25.39666 | 55.24125 | 1858 ft | 94 kts | 116° |
| 2026-04-23 01:58 | 25.39377 | 55.24767 | 1852 ft | 94 kts | 116° |
| 2026-04-23 01:58 | 25.39082 | 55.25413 | 1822 ft | 94 kts | 116° |
| 2026-04-23 01:58 | 25.38789 | 55.26052 | 1803 ft | 92 kts | 117° |
| 2026-04-23 01:59 | 25.38496 | 55.26683 | 1775 ft | 93 kts | 117° |
| 2026-04-23 01:59 | 25.38210 | 55.27312 | 1752 ft | 91 kts | 117° |
| 2026-04-23 01:59 | 25.37928 | 55.27937 | 1681 ft | 93 kts | 117° |
| 2026-04-23 01:59 | 25.37637 | 55.28570 | 1628 ft | 92 kts | 117° |
| 2026-04-23 02:00 | 25.37348 | 55.29199 | 1576 ft | 92 kts | 116° |
| 2026-04-23 02:00 | 25.37073 | 55.29838 | 1496 ft | 92 kts | 115° |
| 2026-04-23 02:00 | 25.36804 | 55.30483 | 1433 ft | 93 kts | 115° |
| 2026-04-23 02:00 | 25.36518 | 55.31123 | 1369 ft | 93 kts | 117° |
| 2026-04-23 02:01 | 25.36210 | 55.31747 | 1330 ft | 92 kts | 118° |
| 2026-04-23 02:01 | 25.35894 | 55.32364 | 1284 ft | 92 kts | 119° |
| 2026-04-23 02:01 | 25.35571 | 55.32976 | 1233 ft | 92 kts | 120° |
| 2026-04-23 02:01 | 25.35243 | 55.33587 | 1184 ft | 92 kts | 120° |
| 2026-04-23 02:02 | 25.34961 | 55.34231 | 1148 ft | 93 kts | 115° |
| 2026-04-23 02:02 | 25.34707 | 55.34884 | 1134 ft | 94 kts | 112° |
| 2026-04-23 02:02 | 25.34500 | 55.35565 | 1155 ft | 92 kts | 108° |
| 2026-04-23 02:02 | 25.34323 | 55.36250 | 1187 ft | 93 kts | 105° |
| 2026-04-23 02:03 | 25.34188 | 55.36950 | 1230 ft | 93 kts | 101° |
| 2026-04-23 02:03 | 25.34091 | 55.37651 | 1259 ft | 92 kts | 98° |
| 2026-04-23 02:03 | 25.33993 | 55.38353 | 1293 ft | 92 kts | 98° |
| 2026-04-23 02:03 | 25.33884 | 55.39048 | 1304 ft | 92 kts | 99° |
| 2026-04-23 02:04 | 25.33786 | 55.39744 | 1433 ft | 91 kts | 98° |
| 2026-04-23 02:04 | 25.33705 | 55.40435 | 1525 ft | 93 kts | 97° |
| 2026-04-23 02:04 | 25.33628 | 55.41144 | 1448 ft | 92 kts | 96° |
| 2026-04-23 02:04 | 25.33563 | 55.41837 | 1413 ft | 90 kts | 95° |
| 2026-04-23 02:05 | 25.33499 | 55.42529 | 1354 ft | 91 kts | 95° |
| 2026-04-23 02:05 | 25.33439 | 55.43226 | 1319 ft | 91 kts | 95° |
| 2026-04-23 02:05 | 25.33386 | 55.43926 | 1258 ft | 91 kts | 94° |
| 2026-04-23 02:05 | 25.33334 | 55.44622 | 1201 ft | 91 kts | 94° |
| 2026-04-23 02:06 | 25.33289 | 55.45321 | 1152 ft | 91 kts | 94° |
| 2026-04-23 02:06 | 25.33247 | 55.46019 | 1109 ft | 91 kts | 93° |
| 2026-04-23 02:06 | 25.33160 | 55.46710 | 1076 ft | 92 kts | 100° |
| 2026-04-23 02:06 | 25.32889 | 55.47348 | 1019 ft | 92 kts | 117° |
| 2026-04-23 02:07 | 25.32548 | 55.47947 | 1014 ft | 91 kts | 121° |
| 2026-04-23 02:07 | 25.32225 | 55.48545 | 983 ft | 91 kts | 120° |
| 2026-04-23 02:07 | 25.31893 | 55.49141 | 958 ft | 91 kts | 121° |
| 2026-04-23 02:07 | 25.31550 | 55.49728 | 949 ft | 91 kts | 122° |
| 2026-04-23 02:08 | 25.31208 | 55.50317 | 931 ft | 92 kts | 122° |
| 2026-04-23 02:08 | 25.30868 | 55.50912 | 933 ft | 91 kts | 122° |
| 2026-04-23 02:08 | 25.30532 | 55.51504 | 923 ft | 91 kts | 121° |
| 2026-04-23 02:08 | 25.30197 | 55.52098 | 931 ft | 90 kts | 121° |
| 2026-04-23 02:09 | 25.29877 | 55.52685 | 894 ft | 87 kts | 120° |
| 2026-04-23 02:09 | 25.29569 | 55.53265 | 774 ft | 90 kts | 120° |
| 2026-04-23 02:09 | 25.29433 | 55.53949 | 650 ft | 94 kts | 96° |
| 2026-04-23 02:09 | 25.29611 | 55.54628 | 561 ft | 93 kts | 69° |
| 2026-04-23 02:10 | 25.30077 | 55.55111 | 506 ft | 93 kts | 37° |
| 2026-04-23 02:10 | 25.30722 | 55.55215 | 427 ft | 97 kts | 0° |
| 2026-04-23 02:10 | 25.31274 | 55.54826 | 389 ft | 96 kts | 317° |
| 2026-04-23 02:10 | 25.31538 | 55.54162 | 332 ft | 91 kts | 292° |
| 2026-04-23 02:11 | 25.31810 | 55.53547 | 218 ft | 88 kts | 297° |
| 2026-04-23 02:11 | 25.32128 | 55.52980 | 131 ft | 83 kts | 301° |
| 2026-04-23 02:11 | 25.32404 | 55.52502 | 121 ft | 65 kts | 300° |
| 2026-04-23 02:11 | 25.32617 | 55.52125 | 121 ft | 52 kts | 302° |
| 2026-04-23 02:12 | 25.32791 | 55.51822 | 120 ft | 39 kts | 303° |
| 2026-04-23 02:12 | 25.32907 | 55.51638 | 120 ft | 10 kts | 302° |
| 2026-04-23 02:12 | 25.32910 | 55.51571 | 120 ft | 10 kts | 230° |
| 2026-04-23 02:12 | 25.32853 | 55.51535 | 120 ft | 10 kts | 209° |
| 2026-04-23 02:13 | 25.32795 | 55.51511 | 120 ft | 8 kts | 157° |
| 2026-04-23 02:13 | 25.32762 | 55.51568 | 120 ft | 13 kts | 114° |
| 2026-04-23 02:13 | 25.32710 | 55.51662 | 120 ft | 14 kts | 126° |
| 2026-04-23 02:13 | 25.32652 | 55.51753 | 120 ft | 15 kts | 126° |
| 2026-04-23 02:14 | 25.32590 | 55.51855 | 120 ft | 17 kts | 117° |
| 2026-04-23 02:14 | 25.32537 | 55.51972 | 120 ft | 17 kts | 120° |
| 2026-04-23 02:14 | 25.32461 | 55.52041 | 120 ft | 7 kts | 172° |
| 2026-04-23 02:14 | 25.32420 | 55.52021 | 120 ft | 7 kts | 223° |
| 2026-04-23 02:15 | 25.32412 | 55.51937 | 120 ft | 0 kts | 302° |
| 2026-04-23 02:15 | 25.32413 | 55.51936 | 121 ft | 0 kts | 300° |
| 2026-04-23 02:25 | 26.27713 | 50.61898 | 15 ft | 17 kts | 123° |
| 2026-04-23 02:26 | 26.27788 | 50.61761 | 15 ft | 0 kts | 360° |